sensor_id;sensor_type;location;lat;lon;timestamp;P1;durP1;ratioP1;P2;durP2;ratioP2
38053;SDS011;23859;50.672;7.164;2023-02-01T00:00:20;29.90;;;15.48;;
38053;SDS011;23859;50.672;7.164;2023-02-01T00:02:46;32.53;;;14.13;;
38053;SDS011;23859;50.672;7.164;2023-02-01T00:05:12;32.75;;;14.60;;
38053;SDS011;23859;50.672;7.164;2023-02-01T00:07:39;29.30;;;15.30;;
38053;SDS011;23859;50.672;7.164;2023-02-01T00:10:05;30.42;;;14.55;;
38053;SDS011;23859;50.672;7.164;2023-02-01T00:12:32;42.03;;;15.13;;
38053;SDS011;23859;50.672;7.164;2023-02-01T00:14:58;33.13;;;15.38;;
38053;SDS011;23859;50.672;7.164;2023-02-01T00:17:24;30.92;;;13.70;;
38053;SDS011;23859;50.672;7.164;2023-02-01T00:19:50;28.15;;;12.77;;
38053;SDS011;23859;50.672;7.164;2023-02-01T00:22:16;31.52;;;13.98;;
38053;SDS011;23859;50.672;7.164;2023-02-01T00:24:43;26.38;;;12.80;;
38053;SDS011;23859;50.672;7.164;2023-02-01T00:27:09;23.23;;;12.20;;
38053;SDS011;23859;50.672;7.164;2023-02-01T00:29:35;25.90;;;12.00;;
38053;SDS011;23859;50.672;7.164;2023-02-01T00:32:01;31.23;;;14.50;;
38053;SDS011;23859;50.672;7.164;2023-02-01T00:34:27;34.38;;;12.60;;
38053;SDS011;23859;50.672;7.164;2023-02-01T00:36:53;32.67;;;13.60;;
38053;SDS011;23859;50.672;7.164;2023-02-01T00:39:19;31.70;;;12.57;;
38053;SDS011;23859;50.672;7.164;2023-02-01T00:41:45;25.40;;;12.90;;
38053;SDS011;23859;50.672;7.164;2023-02-01T00:44:11;30.27;;;11.93;;
38053;SDS011;23859;50.672;7.164;2023-02-01T00:46:37;29.92;;;10.85;;
38053;SDS011;23859;50.672;7.164;2023-02-01T00:49:03;26.83;;;10.55;;
38053;SDS011;23859;50.672;7.164;2023-02-01T00:51:32;24.45;;;10.50;;
38053;SDS011;23859;50.672;7.164;2023-02-01T00:53:58;19.27;;;9.43;;
38053;SDS011;23859;50.672;7.164;2023-02-01T00:56:24;19.73;;;8.05;;
38053;SDS011;23859;50.672;7.164;2023-02-01T00:58:52;21.98;;;10.27;;
38053;SDS011;23859;50.672;7.164;2023-02-01T01:01:27;30.40;;;9.88;;
38053;SDS011;23859;50.672;7.164;2023-02-01T01:03:54;22.35;;;8.65;;
38053;SDS011;23859;50.672;7.164;2023-02-01T01:06:26;19.75;;;7.80;;
38053;SDS011;23859;50.672;7.164;2023-02-01T01:08:55;18.00;;;6.78;;
38053;SDS011;23859;50.672;7.164;2023-02-01T01:11:24;22.17;;;7.47;;
38053;SDS011;23859;50.672;7.164;2023-02-01T01:13:55;21.35;;;7.38;;
38053;SDS011;23859;50.672;7.164;2023-02-01T01:16:23;19.10;;;7.40;;
38053;SDS011;23859;50.672;7.164;2023-02-01T01:18:50;19.63;;;6.00;;
38053;SDS011;23859;50.672;7.164;2023-02-01T01:21:17;18.52;;;6.45;;
38053;SDS011;23859;50.672;7.164;2023-02-01T01:23:44;20.33;;;6.05;;
38053;SDS011;23859;50.672;7.164;2023-02-01T01:26:15;25.20;;;5.60;;
38053;SDS011;23859;50.672;7.164;2023-02-01T01:28:45;23.70;;;5.97;;
38053;SDS011;23859;50.672;7.164;2023-02-01T01:31:12;18.00;;;5.78;;
38053;SDS011;23859;50.672;7.164;2023-02-01T01:33:40;22.95;;;6.38;;
38053;SDS011;23859;50.672;7.164;2023-02-01T01:36:07;20.38;;;5.68;;
38053;SDS011;23859;50.672;7.164;2023-02-01T01:38:37;22.17;;;5.68;;
38053;SDS011;23859;50.672;7.164;2023-02-01T01:41:04;23.70;;;5.75;;
38053;SDS011;23859;50.672;7.164;2023-02-01T01:43:46;18.88;;;5.43;;
38053;SDS011;23859;50.672;7.164;2023-02-01T01:46:21;20.17;;;6.05;;
38053;SDS011;23859;50.672;7.164;2023-02-01T01:48:53;19.73;;;6.00;;
38053;SDS011;23859;50.672;7.164;2023-02-01T01:51:43;16.77;;;5.28;;
38053;SDS011;23859;50.672;7.164;2023-02-01T01:56:48;17.65;;;5.75;;
38053;SDS011;23859;50.672;7.164;2023-02-01T01:59:19;14.98;;;5.30;;
38053;SDS011;23859;50.672;7.164;2023-02-01T02:01:46;18.65;;;5.63;;
38053;SDS011;23859;50.672;7.164;2023-02-01T02:04:13;15.93;;;5.35;;
38053;SDS011;23859;50.672;7.164;2023-02-01T02:09:10;20.70;;;4.95;;
38053;SDS011;23859;50.672;7.164;2023-02-01T02:11:36;21.08;;;5.40;;
38053;SDS011;23859;50.672;7.164;2023-02-01T02:14:02;21.90;;;6.32;;
38053;SDS011;23859;50.672;7.164;2023-02-01T02:16:38;19.83;;;5.47;;
38053;SDS011;23859;50.672;7.164;2023-02-01T02:24:45;21.75;;;6.18;;
38053;SDS011;23859;50.672;7.164;2023-02-01T02:31:09;19.25;;;5.80;;
38053;SDS011;23859;50.672;7.164;2023-02-01T02:34:18;17.10;;;5.50;;
38053;SDS011;23859;50.672;7.164;2023-02-01T02:36:43;22.35;;;5.75;;
38053;SDS011;23859;50.672;7.164;2023-02-01T02:39:17;20.98;;;5.40;;
38053;SDS011;23859;50.672;7.164;2023-02-01T02:41:54;19.10;;;4.80;;
38053;SDS011;23859;50.672;7.164;2023-02-01T02:48:01;17.33;;;4.88;;
38053;SDS011;23859;50.672;7.164;2023-02-01T02:50:41;23.92;;;6.00;;
38053;SDS011;23859;50.672;7.164;2023-02-01T02:56:34;23.98;;;6.80;;
38053;SDS011;23859;50.672;7.164;2023-02-01T02:59:21;23.67;;;6.40;;
38053;SDS011;23859;50.672;7.164;2023-02-01T03:02:07;17.35;;;5.47;;
38053;SDS011;23859;50.672;7.164;2023-02-01T03:04:53;24.10;;;6.55;;
38053;SDS011;23859;50.672;7.164;2023-02-01T03:10:12;19.33;;;5.80;;
38053;SDS011;23859;50.672;7.164;2023-02-01T03:13:04;21.60;;;5.32;;
38053;SDS011;23859;50.672;7.164;2023-02-01T03:15:40;15.02;;;4.72;;
38053;SDS011;23859;50.672;7.164;2023-02-01T03:18:33;22.63;;;5.32;;
38053;SDS011;23859;50.672;7.164;2023-02-01T03:21:23;20.98;;;5.65;;
38053;SDS011;23859;50.672;7.164;2023-02-01T03:23:53;21.70;;;5.22;;
38053;SDS011;23859;50.672;7.164;2023-02-01T03:26:24;19.85;;;5.32;;
38053;SDS011;23859;50.672;7.164;2023-02-01T03:29:05;19.80;;;5.60;;
38053;SDS011;23859;50.672;7.164;2023-02-01T03:31:37;24.40;;;5.63;;
38053;SDS011;23859;50.672;7.164;2023-02-01T03:34:03;19.83;;;6.30;;
38053;SDS011;23859;50.672;7.164;2023-02-01T03:36:31;18.48;;;4.90;;
38053;SDS011;23859;50.672;7.164;2023-02-01T03:41:49;17.05;;;4.57;;
38053;SDS011;23859;50.672;7.164;2023-02-01T03:44:23;22.38;;;5.47;;
38053;SDS011;23859;50.672;7.164;2023-02-01T03:49:39;18.63;;;4.88;;
38053;SDS011;23859;50.672;7.164;2023-02-01T03:52:13;26.58;;;4.78;;
38053;SDS011;23859;50.672;7.164;2023-02-01T03:54:45;23.70;;;5.28;;
38053;SDS011;23859;50.672;7.164;2023-02-01T03:57:12;25.35;;;6.05;;
38053;SDS011;23859;50.672;7.164;2023-02-01T04:02:11;15.48;;;3.97;;
38053;SDS011;23859;50.672;7.164;2023-02-01T04:04:37;22.35;;;5.50;;
38053;SDS011;23859;50.672;7.164;2023-02-01T04:07:03;18.73;;;6.05;;
38053;SDS011;23859;50.672;7.164;2023-02-01T04:09:30;18.05;;;4.55;;
38053;SDS011;23859;50.672;7.164;2023-02-01T04:11:56;26.08;;;5.43;;
38053;SDS011;23859;50.672;7.164;2023-02-01T04:14:22;20.67;;;5.10;;
38053;SDS011;23859;50.672;7.164;2023-02-01T04:16:48;27.38;;;4.90;;
38053;SDS011;23859;50.672;7.164;2023-02-01T04:19:14;25.48;;;5.45;;
38053;SDS011;23859;50.672;7.164;2023-02-01T04:21:40;30.15;;;6.18;;
38053;SDS011;23859;50.672;7.164;2023-02-01T04:24:06;24.45;;;5.50;;
38053;SDS011;23859;50.672;7.164;2023-02-01T04:26:33;19.02;;;5.47;;
38053;SDS011;23859;50.672;7.164;2023-02-01T04:28:59;25.45;;;6.07;;
38053;SDS011;23859;50.672;7.164;2023-02-01T04:31:25;24.05;;;5.35;;
38053;SDS011;23859;50.672;7.164;2023-02-01T04:33:52;29.25;;;6.07;;
38053;SDS011;23859;50.672;7.164;2023-02-01T04:36:23;24.42;;;6.05;;
38053;SDS011;23859;50.672;7.164;2023-02-01T04:38:49;24.63;;;6.57;;
38053;SDS011;23859;50.672;7.164;2023-02-01T04:41:16;28.60;;;7.05;;
38053;SDS011;23859;50.672;7.164;2023-02-01T04:43:44;18.25;;;6.05;;
38053;SDS011;23859;50.672;7.164;2023-02-01T04:46:11;24.08;;;6.65;;
38053;SDS011;23859;50.672;7.164;2023-02-01T04:48:37;21.60;;;6.07;;
38053;SDS011;23859;50.672;7.164;2023-02-01T04:51:03;25.30;;;6.93;;
38053;SDS011;23859;50.672;7.164;2023-02-01T04:53:29;22.83;;;5.75;;
38053;SDS011;23859;50.672;7.164;2023-02-01T04:55:55;28.83;;;6.45;;
38053;SDS011;23859;50.672;7.164;2023-02-01T04:58:21;19.70;;;6.25;;
38053;SDS011;23859;50.672;7.164;2023-02-01T05:00:47;19.88;;;6.18;;
38053;SDS011;23859;50.672;7.164;2023-02-01T05:03:14;20.70;;;5.68;;
38053;SDS011;23859;50.672;7.164;2023-02-01T05:05:40;15.85;;;5.78;;
38053;SDS011;23859;50.672;7.164;2023-02-01T05:08:07;24.92;;;6.88;;
38053;SDS011;23859;50.672;7.164;2023-02-01T05:10:33;28.60;;;6.45;;
38053;SDS011;23859;50.672;7.164;2023-02-01T05:12:59;19.08;;;5.95;;
38053;SDS011;23859;50.672;7.164;2023-02-01T05:15:45;26.40;;;5.78;;
38053;SDS011;23859;50.672;7.164;2023-02-01T05:18:12;18.77;;;6.55;;
38053;SDS011;23859;50.672;7.164;2023-02-01T05:20:38;23.40;;;5.35;;
38053;SDS011;23859;50.672;7.164;2023-02-01T05:23:04;17.23;;;6.07;;
38053;SDS011;23859;50.672;7.164;2023-02-01T05:25:30;25.92;;;5.60;;
38053;SDS011;23859;50.672;7.164;2023-02-01T05:27:56;25.15;;;5.28;;
38053;SDS011;23859;50.672;7.164;2023-02-01T05:30:22;18.95;;;5.28;;
38053;SDS011;23859;50.672;7.164;2023-02-01T05:32:49;18.88;;;6.60;;
38053;SDS011;23859;50.672;7.164;2023-02-01T05:35:16;23.98;;;5.47;;
38053;SDS011;23859;50.672;7.164;2023-02-01T05:37:42;25.83;;;5.38;;
38053;SDS011;23859;50.672;7.164;2023-02-01T05:40:08;21.00;;;4.57;;
38053;SDS011;23859;50.672;7.164;2023-02-01T05:42:35;20.23;;;4.90;;
38053;SDS011;23859;50.672;7.164;2023-02-01T05:45:01;20.02;;;4.25;;
38053;SDS011;23859;50.672;7.164;2023-02-01T05:47:30;20.42;;;5.25;;
38053;SDS011;23859;50.672;7.164;2023-02-01T05:49:56;18.58;;;4.53;;
38053;SDS011;23859;50.672;7.164;2023-02-01T05:52:22;21.20;;;5.75;;
38053;SDS011;23859;50.672;7.164;2023-02-01T05:54:48;17.15;;;3.97;;
38053;SDS011;23859;50.672;7.164;2023-02-01T05:57:14;25.27;;;5.72;;
38053;SDS011;23859;50.672;7.164;2023-02-01T05:59:41;18.88;;;5.53;;
38053;SDS011;23859;50.672;7.164;2023-02-01T06:02:09;21.50;;;3.78;;
38053;SDS011;23859;50.672;7.164;2023-02-01T06:04:36;18.52;;;4.05;;
38053;SDS011;23859;50.672;7.164;2023-02-01T06:07:03;18.08;;;3.78;;
38053;SDS011;23859;50.672;7.164;2023-02-01T06:09:29;14.48;;;3.47;;
38053;SDS011;23859;50.672;7.164;2023-02-01T06:11:55;23.67;;;4.93;;
38053;SDS011;23859;50.672;7.164;2023-02-01T06:14:21;15.50;;;4.53;;
38053;SDS011;23859;50.672;7.164;2023-02-01T06:16:47;15.75;;;4.18;;
38053;SDS011;23859;50.672;7.164;2023-02-01T06:19:13;19.08;;;4.78;;
38053;SDS011;23859;50.672;7.164;2023-02-01T06:21:39;26.85;;;5.15;;
38053;SDS011;23859;50.672;7.164;2023-02-01T06:24:05;14.63;;;4.72;;
38053;SDS011;23859;50.672;7.164;2023-02-01T06:26:31;16.58;;;3.90;;
38053;SDS011;23859;50.672;7.164;2023-02-01T06:28:58;17.80;;;4.05;;
38053;SDS011;23859;50.672;7.164;2023-02-01T06:31:24;15.60;;;3.95;;
38053;SDS011;23859;50.672;7.164;2023-02-01T06:33:51;23.10;;;4.43;;
38053;SDS011;23859;50.672;7.164;2023-02-01T06:36:18;28.67;;;4.00;;
38053;SDS011;23859;50.672;7.164;2023-02-01T06:38:46;28.30;;;5.03;;
38053;SDS011;23859;50.672;7.164;2023-02-01T06:41:13;20.50;;;4.25;;
38053;SDS011;23859;50.672;7.164;2023-02-01T06:43:40;26.58;;;4.90;;
38053;SDS011;23859;50.672;7.164;2023-02-01T06:46:07;22.80;;;4.32;;
38053;SDS011;23859;50.672;7.164;2023-02-01T06:48:36;17.98;;;4.18;;
38053;SDS011;23859;50.672;7.164;2023-02-01T06:51:02;14.63;;;4.90;;
38053;SDS011;23859;50.672;7.164;2023-02-01T06:53:29;23.02;;;4.97;;
38053;SDS011;23859;50.672;7.164;2023-02-01T06:55:56;20.20;;;4.13;;
38053;SDS011;23859;50.672;7.164;2023-02-01T06:58:27;20.13;;;4.78;;
38053;SDS011;23859;50.672;7.164;2023-02-01T07:00:54;21.85;;;5.03;;
38053;SDS011;23859;50.672;7.164;2023-02-01T07:03:20;13.57;;;3.97;;
38053;SDS011;23859;50.672;7.164;2023-02-01T07:05:46;24.67;;;5.18;;
38053;SDS011;23859;50.672;7.164;2023-02-01T07:08:12;22.90;;;4.85;;
38053;SDS011;23859;50.672;7.164;2023-02-01T07:10:39;26.20;;;4.78;;
38053;SDS011;23859;50.672;7.164;2023-02-01T07:13:05;14.15;;;3.83;;
38053;SDS011;23859;50.672;7.164;2023-02-01T07:15:31;14.15;;;4.65;;
38053;SDS011;23859;50.672;7.164;2023-02-01T07:17:57;27.42;;;5.18;;
38053;SDS011;23859;50.672;7.164;2023-02-01T07:20:23;20.40;;;5.53;;
38053;SDS011;23859;50.672;7.164;2023-02-01T07:22:54;19.73;;;4.03;;
38053;SDS011;23859;50.672;7.164;2023-02-01T07:25:21;19.80;;;4.53;;
38053;SDS011;23859;50.672;7.164;2023-02-01T07:27:48;18.55;;;5.53;;
38053;SDS011;23859;50.672;7.164;2023-02-01T07:30:14;18.92;;;4.85;;
38053;SDS011;23859;50.672;7.164;2023-02-01T07:32:40;23.70;;;4.95;;
38053;SDS011;23859;50.672;7.164;2023-02-01T07:35:06;15.95;;;4.38;;
38053;SDS011;23859;50.672;7.164;2023-02-01T07:37:32;23.30;;;5.13;;
38053;SDS011;23859;50.672;7.164;2023-02-01T07:39:58;19.15;;;4.78;;
38053;SDS011;23859;50.672;7.164;2023-02-01T07:42:24;23.35;;;4.65;;
38053;SDS011;23859;50.672;7.164;2023-02-01T07:44:50;20.98;;;4.40;;
38053;SDS011;23859;50.672;7.164;2023-02-01T07:47:16;19.60;;;4.13;;
38053;SDS011;23859;50.672;7.164;2023-02-01T07:49:42;20.67;;;4.95;;
38053;SDS011;23859;50.672;7.164;2023-02-01T07:52:08;23.23;;;4.72;;
38053;SDS011;23859;50.672;7.164;2023-02-01T07:54:36;17.13;;;4.93;;
38053;SDS011;23859;50.672;7.164;2023-02-01T07:57:02;22.55;;;4.90;;
38053;SDS011;23859;50.672;7.164;2023-02-01T07:59:28;21.08;;;5.22;;
38053;SDS011;23859;50.672;7.164;2023-02-01T08:01:54;18.63;;;4.03;;
38053;SDS011;23859;50.672;7.164;2023-02-01T08:04:20;16.60;;;4.30;;
38053;SDS011;23859;50.672;7.164;2023-02-01T08:06:46;30.00;;;5.10;;
38053;SDS011;23859;50.672;7.164;2023-02-01T08:09:12;31.83;;;6.40;;
38053;SDS011;23859;50.672;7.164;2023-02-01T08:11:38;27.73;;;5.63;;
38053;SDS011;23859;50.672;7.164;2023-02-01T08:14:04;16.33;;;4.35;;
38053;SDS011;23859;50.672;7.164;2023-02-01T08:16:31;24.73;;;5.35;;
38053;SDS011;23859;50.672;7.164;2023-02-01T08:19:00;33.33;;;6.35;;
38053;SDS011;23859;50.672;7.164;2023-02-01T08:21:27;15.30;;;4.55;;
38053;SDS011;23859;50.672;7.164;2023-02-01T08:24:02;29.33;;;6.25;;
38053;SDS011;23859;50.672;7.164;2023-02-01T08:26:30;23.60;;;6.28;;
38053;SDS011;23859;50.672;7.164;2023-02-01T08:28:58;22.00;;;5.88;;
38053;SDS011;23859;50.672;7.164;2023-02-01T08:31:27;26.45;;;5.80;;
38053;SDS011;23859;50.672;7.164;2023-02-01T08:33:55;27.02;;;7.00;;
38053;SDS011;23859;50.672;7.164;2023-02-01T08:36:23;21.85;;;5.30;;
38053;SDS011;23859;50.672;7.164;2023-02-01T08:38:50;16.98;;;4.63;;
38053;SDS011;23859;50.672;7.164;2023-02-01T08:41:17;17.25;;;4.55;;
38053;SDS011;23859;50.672;7.164;2023-02-01T08:43:45;25.48;;;4.75;;
38053;SDS011;23859;50.672;7.164;2023-02-01T08:46:12;18.27;;;4.32;;
38053;SDS011;23859;50.672;7.164;2023-02-01T08:48:39;15.52;;;5.07;;
38053;SDS011;23859;50.672;7.164;2023-02-01T08:51:15;20.30;;;4.78;;
38053;SDS011;23859;50.672;7.164;2023-02-01T08:53:42;15.98;;;4.60;;
38053;SDS011;23859;50.672;7.164;2023-02-01T08:56:10;22.80;;;4.35;;
38053;SDS011;23859;50.672;7.164;2023-02-01T08:58:37;26.05;;;4.85;;
38053;SDS011;23859;50.672;7.164;2023-02-01T09:01:04;24.40;;;6.65;;
38053;SDS011;23859;50.672;7.164;2023-02-01T09:03:34;25.27;;;4.68;;
38053;SDS011;23859;50.672;7.164;2023-02-01T09:06:04;17.52;;;4.10;;
38053;SDS011;23859;50.672;7.164;2023-02-01T09:08:32;18.40;;;4.65;;
38053;SDS011;23859;50.672;7.164;2023-02-01T09:11:03;19.33;;;4.13;;
38053;SDS011;23859;50.672;7.164;2023-02-01T09:13:31;21.60;;;5.50;;
38053;SDS011;23859;50.672;7.164;2023-02-01T09:15:58;16.08;;;5.40;;
38053;SDS011;23859;50.672;7.164;2023-02-01T09:18:25;22.65;;;4.55;;
38053;SDS011;23859;50.672;7.164;2023-02-01T09:20:51;14.70;;;4.38;;
38053;SDS011;23859;50.672;7.164;2023-02-01T09:23:17;18.45;;;4.38;;
38053;SDS011;23859;50.672;7.164;2023-02-01T09:25:45;18.13;;;4.50;;
38053;SDS011;23859;50.672;7.164;2023-02-01T09:28:13;22.67;;;4.53;;
38053;SDS011;23859;50.672;7.164;2023-02-01T09:30:39;16.98;;;4.68;;
38053;SDS011;23859;50.672;7.164;2023-02-01T09:33:05;19.67;;;4.00;;
38053;SDS011;23859;50.672;7.164;2023-02-01T09:35:31;22.20;;;4.22;;
38053;SDS011;23859;50.672;7.164;2023-02-01T09:37:57;13.48;;;3.95;;
38053;SDS011;23859;50.672;7.164;2023-02-01T09:40:23;24.98;;;4.63;;
38053;SDS011;23859;50.672;7.164;2023-02-01T09:45:43;22.27;;;4.18;;
38053;SDS011;23859;50.672;7.164;2023-02-01T09:48:34;15.15;;;3.58;;
38053;SDS011;23859;50.672;7.164;2023-02-01T09:51:04;18.15;;;4.35;;
38053;SDS011;23859;50.672;7.164;2023-02-01T09:53:39;15.80;;;4.10;;
38053;SDS011;23859;50.672;7.164;2023-02-01T09:56:14;25.45;;;4.75;;
38053;SDS011;23859;50.672;7.164;2023-02-01T10:01:26;24.63;;;4.35;;
38053;SDS011;23859;50.672;7.164;2023-02-01T10:04:00;19.15;;;3.97;;
38053;SDS011;23859;50.672;7.164;2023-02-01T10:06:45;16.95;;;4.13;;
38053;SDS011;23859;50.672;7.164;2023-02-01T10:15:02;15.27;;;4.22;;
38053;SDS011;23859;50.672;7.164;2023-02-01T10:22:54;18.23;;;4.95;;
38053;SDS011;23859;50.672;7.164;2023-02-01T10:25:56;15.43;;;4.47;;
38053;SDS011;23859;50.672;7.164;2023-02-01T10:28:28;15.30;;;4.35;;
38053;SDS011;23859;50.672;7.164;2023-02-01T10:30:58;18.42;;;3.90;;
38053;SDS011;23859;50.672;7.164;2023-02-01T10:38:46;12.55;;;3.90;;
38053;SDS011;23859;50.672;7.164;2023-02-01T10:43:48;15.02;;;4.32;;
38053;SDS011;23859;50.672;7.164;2023-02-01T10:46:22;16.13;;;3.75;;
38053;SDS011;23859;50.672;7.164;2023-02-01T10:48:49;13.77;;;3.38;;
38053;SDS011;23859;50.672;7.164;2023-02-01T10:52:00;13.18;;;3.50;;
38053;SDS011;23859;50.672;7.164;2023-02-01T10:54:34;13.27;;;3.53;;
38053;SDS011;23859;50.672;7.164;2023-02-01T10:57:19;23.00;;;3.50;;
38053;SDS011;23859;50.672;7.164;2023-02-01T10:59:45;16.23;;;3.42;;
38053;SDS011;23859;50.672;7.164;2023-02-01T11:04:51;21.30;;;3.83;;
38053;SDS011;23859;50.672;7.164;2023-02-01T11:07:28;23.15;;;4.03;;
38053;SDS011;23859;50.672;7.164;2023-02-01T11:09:55;19.88;;;4.60;;
38053;SDS011;23859;50.672;7.164;2023-02-01T11:12:33;16.15;;;3.10;;
38053;SDS011;23859;50.672;7.164;2023-02-01T11:15:03;17.92;;;2.92;;
38053;SDS011;23859;50.672;7.164;2023-02-01T11:17:49;16.02;;;3.80;;
38053;SDS011;23859;50.672;7.164;2023-02-01T11:20:17;17.05;;;3.85;;
38053;SDS011;23859;50.672;7.164;2023-02-01T11:22:55;12.63;;;3.28;;
38053;SDS011;23859;50.672;7.164;2023-02-01T11:25:22;10.50;;;3.10;;
38053;SDS011;23859;50.672;7.164;2023-02-01T11:27:50;16.75;;;3.22;;
38053;SDS011;23859;50.672;7.164;2023-02-01T11:30:31;14.85;;;3.05;;
38053;SDS011;23859;50.672;7.164;2023-02-01T11:33:01;15.98;;;3.20;;
38053;SDS011;23859;50.672;7.164;2023-02-01T11:35:30;12.48;;;3.70;;
38053;SDS011;23859;50.672;7.164;2023-02-01T11:37:57;13.35;;;3.22;;
38053;SDS011;23859;50.672;7.164;2023-02-01T11:40:57;11.13;;;3.05;;
38053;SDS011;23859;50.672;7.164;2023-02-01T11:43:26;23.13;;;4.30;;
38053;SDS011;23859;50.672;7.164;2023-02-01T11:46:03;14.20;;;3.10;;
38053;SDS011;23859;50.672;7.164;2023-02-01T11:48:40;12.57;;;5.07;;
38053;SDS011;23859;50.672;7.164;2023-02-01T11:54:16;10.63;;;3.17;;
38053;SDS011;23859;50.672;7.164;2023-02-01T11:57:10;28.23;;;4.47;;
38053;SDS011;23859;50.672;7.164;2023-02-01T12:05:11;14.03;;;3.83;;
38053;SDS011;23859;50.672;7.164;2023-02-01T12:13:52;15.65;;;3.78;;
38053;SDS011;23859;50.672;7.164;2023-02-01T12:16:42;16.88;;;3.38;;
38053;SDS011;23859;50.672;7.164;2023-02-01T12:27:58;8.88;;;2.75;;
38053;SDS011;23859;50.672;7.164;2023-02-01T12:31:00;11.32;;;2.97;;
38053;SDS011;23859;50.672;7.164;2023-02-01T12:42:14;10.82;;;2.88;;
38053;SDS011;23859;50.672;7.164;2023-02-01T12:45:02;5.57;;;2.20;;
38053;SDS011;23859;50.672;7.164;2023-02-01T12:47:35;16.38;;;3.47;;
38053;SDS011;23859;50.672;7.164;2023-02-01T12:50:14;7.80;;;2.35;;
38053;SDS011;23859;50.672;7.164;2023-02-01T12:52:58;10.20;;;2.90;;
38053;SDS011;23859;50.672;7.164;2023-02-01T12:55:59;19.00;;;3.70;;
38053;SDS011;23859;50.672;7.164;2023-02-01T13:01:12;9.30;;;4.05;;
38053;SDS011;23859;50.672;7.164;2023-02-01T13:04:01;16.17;;;4.03;;
38053;SDS011;23859;50.672;7.164;2023-02-01T13:06:52;16.65;;;3.30;;
38053;SDS011;23859;50.672;7.164;2023-02-01T13:09:43;15.87;;;4.33;;
38053;SDS011;23859;50.672;7.164;2023-02-01T13:12:25;14.90;;;4.07;;
38053;SDS011;23859;50.672;7.164;2023-02-01T13:15:19;11.38;;;2.97;;
38053;SDS011;23859;50.672;7.164;2023-02-01T13:17:54;13.25;;;3.40;;
38053;SDS011;23859;50.672;7.164;2023-02-01T13:20:29;17.42;;;3.65;;
38053;SDS011;23859;50.672;7.164;2023-02-01T13:23:03;11.00;;;2.95;;
38053;SDS011;23859;50.672;7.164;2023-02-01T13:25:43;12.52;;;2.97;;
38053;SDS011;23859;50.672;7.164;2023-02-01T13:28:24;17.88;;;3.13;;
38053;SDS011;23859;50.672;7.164;2023-02-01T13:30:59;12.90;;;2.70;;
38053;SDS011;23859;50.672;7.164;2023-02-01T13:36:41;16.27;;;3.72;;
38053;SDS011;23859;50.672;7.164;2023-02-01T13:42:17;14.73;;;2.97;;
38053;SDS011;23859;50.672;7.164;2023-02-01T13:44:49;12.13;;;2.60;;
38053;SDS011;23859;50.672;7.164;2023-02-01T13:47:25;8.05;;;2.13;;
38053;SDS011;23859;50.672;7.164;2023-02-01T13:49:58;16.02;;;3.17;;
38053;SDS011;23859;50.672;7.164;2023-02-01T13:52:37;13.05;;;2.97;;
38053;SDS011;23859;50.672;7.164;2023-02-01T13:55:30;10.95;;;3.35;;
38053;SDS011;23859;50.672;7.164;2023-02-01T13:58:00;13.02;;;2.95;;
38053;SDS011;23859;50.672;7.164;2023-02-01T14:00:50;13.60;;;3.38;;
38053;SDS011;23859;50.672;7.164;2023-02-01T14:03:43;12.18;;;3.55;;
38053;SDS011;23859;50.672;7.164;2023-02-01T14:11:34;11.68;;;2.55;;
38053;SDS011;23859;50.672;7.164;2023-02-01T14:16:41;12.27;;;2.95;;
38053;SDS011;23859;50.672;7.164;2023-02-01T14:19:08;18.00;;;2.35;;
38053;SDS011;23859;50.672;7.164;2023-02-01T14:21:50;16.00;;;3.42;;
38053;SDS011;23859;50.672;7.164;2023-02-01T14:24:26;14.90;;;2.88;;
38053;SDS011;23859;50.672;7.164;2023-02-01T14:27:01;26.17;;;3.60;;
38053;SDS011;23859;50.672;7.164;2023-02-01T14:29:37;12.65;;;2.85;;
38053;SDS011;23859;50.672;7.164;2023-02-01T14:50:40;12.45;;;2.58;;
38053;SDS011;23859;50.672;7.164;2023-02-01T14:55:53;13.85;;;3.72;;
38053;SDS011;23859;50.672;7.164;2023-02-01T14:58:34;10.75;;;3.92;;
38053;SDS011;23859;50.672;7.164;2023-02-01T15:01:23;15.32;;;3.10;;
38053;SDS011;23859;50.672;7.164;2023-02-01T15:04:06;11.35;;;2.80;;
38053;SDS011;23859;50.672;7.164;2023-02-01T15:06:46;13.45;;;2.40;;
38053;SDS011;23859;50.672;7.164;2023-02-01T15:09:25;13.75;;;4.40;;
38053;SDS011;23859;50.672;7.164;2023-02-01T15:14:38;29.92;;;9.70;;
38053;SDS011;23859;50.672;7.164;2023-02-01T15:17:17;18.42;;;7.05;;
38053;SDS011;23859;50.672;7.164;2023-02-01T15:19:53;26.42;;;6.72;;
38053;SDS011;23859;50.672;7.164;2023-02-01T15:24:51;15.98;;;4.53;;
38053;SDS011;23859;50.672;7.164;2023-02-01T15:27:22;16.83;;;3.63;;
38053;SDS011;23859;50.672;7.164;2023-02-01T15:29:49;19.33;;;6.60;;
38053;SDS011;23859;50.672;7.164;2023-02-01T15:32:31;14.40;;;4.70;;
38053;SDS011;23859;50.672;7.164;2023-02-01T15:34:59;14.63;;;3.85;;
38053;SDS011;23859;50.672;7.164;2023-02-01T15:37:26;14.52;;;4.47;;
38053;SDS011;23859;50.672;7.164;2023-02-01T15:42:39;13.18;;;3.72;;
38053;SDS011;23859;50.672;7.164;2023-02-01T15:45:16;17.08;;;6.20;;
38053;SDS011;23859;50.672;7.164;2023-02-01T15:47:46;12.00;;;2.67;;
38053;SDS011;23859;50.672;7.164;2023-02-01T15:50:16;16.40;;;4.18;;
38053;SDS011;23859;50.672;7.164;2023-02-01T15:52:45;15.30;;;3.03;;
38053;SDS011;23859;50.672;7.164;2023-02-01T15:55:23;14.98;;;3.42;;
38053;SDS011;23859;50.672;7.164;2023-02-01T15:58:06;10.13;;;2.63;;
38053;SDS011;23859;50.672;7.164;2023-02-01T16:00:52;12.27;;;3.05;;
38053;SDS011;23859;50.672;7.164;2023-02-01T16:06:01;15.68;;;3.97;;
38053;SDS011;23859;50.672;7.164;2023-02-01T16:08:30;16.50;;;2.40;;
38053;SDS011;23859;50.672;7.164;2023-02-01T16:13:45;9.93;;;4.53;;
38053;SDS011;23859;50.672;7.164;2023-02-01T16:16:11;13.82;;;3.97;;
38053;SDS011;23859;50.672;7.164;2023-02-01T16:18:39;22.65;;;4.53;;
38053;SDS011;23859;50.672;7.164;2023-02-01T16:21:06;15.00;;;3.00;;
38053;SDS011;23859;50.672;7.164;2023-02-01T16:23:35;16.58;;;4.68;;
38053;SDS011;23859;50.672;7.164;2023-02-01T16:26:02;13.50;;;4.43;;
38053;SDS011;23859;50.672;7.164;2023-02-01T16:28:28;18.45;;;4.05;;
38053;SDS011;23859;50.672;7.164;2023-02-01T16:30:54;14.75;;;3.70;;
38053;SDS011;23859;50.672;7.164;2023-02-01T16:33:20;17.83;;;4.00;;
38053;SDS011;23859;50.672;7.164;2023-02-01T16:35:48;15.27;;;3.70;;
38053;SDS011;23859;50.672;7.164;2023-02-01T16:38:16;16.77;;;3.72;;
38053;SDS011;23859;50.672;7.164;2023-02-01T16:40:46;10.20;;;3.90;;
38053;SDS011;23859;50.672;7.164;2023-02-01T16:43:14;13.75;;;3.50;;
38053;SDS011;23859;50.672;7.164;2023-02-01T16:45:49;15.80;;;3.55;;
38053;SDS011;23859;50.672;7.164;2023-02-01T16:48:29;15.57;;;3.72;;
38053;SDS011;23859;50.672;7.164;2023-02-01T16:50:59;14.45;;;4.20;;
38053;SDS011;23859;50.672;7.164;2023-02-01T16:53:28;18.88;;;4.63;;
38053;SDS011;23859;50.672;7.164;2023-02-01T16:55:55;10.38;;;3.67;;
38053;SDS011;23859;50.672;7.164;2023-02-01T16:58:22;24.67;;;5.85;;
38053;SDS011;23859;50.672;7.164;2023-02-01T17:00:50;19.90;;;4.40;;
38053;SDS011;23859;50.672;7.164;2023-02-01T17:03:17;12.85;;;3.28;;
38053;SDS011;23859;50.672;7.164;2023-02-01T17:05:48;15.55;;;3.78;;
38053;SDS011;23859;50.672;7.164;2023-02-01T17:08:18;13.00;;;3.40;;
38053;SDS011;23859;50.672;7.164;2023-02-01T17:10:53;24.30;;;5.07;;
38053;SDS011;23859;50.672;7.164;2023-02-01T17:13:19;15.32;;;4.35;;
38053;SDS011;23859;50.672;7.164;2023-02-01T17:15:48;17.80;;;3.97;;
38053;SDS011;23859;50.672;7.164;2023-02-01T17:18:21;11.07;;;3.72;;